AMN weather

Gratiot Community Airport
Alma, Michigan, United States

Public forecast

Using degrees Fahrenheit for public forecast. Weather courtesy of forecast.io.

METAR (pilot weather report)

Retrieved 2019/07/23 17:36 UTC (0 seconds ago):

KAMN 231736Z AUTO 25006KT 10SM BKN065 25/09 A3003 RMK AO2 T02450088

TAF (pilot weather forecast)

Closest forecast is MBS International Airport, 29.4 nm (54.4 km) ENE. Retrieved 2019/07/23 12:36 UTC (5 hours ago):

TAF KMBS 231135Z 2312/2412 30010KT P6SM BKN250 FM231700 30012KT P6SM BKN060 OVC120 TEMPO 2319/2321 5SM SHRA OVC045 FM232300 03007KT P6SM BKN060 FM240500 30005KT P6SM BKN250